sensor_id;sensor_type;location;lat;lon;timestamp;P1;durP1;ratioP1;P2;durP2;ratioP2
15216;SDS011;7711;46.634;14.318;2022-08-01T00:01:18;4.50;;;3.45;;
15216;SDS011;7711;46.634;14.318;2022-08-01T00:03:46;4.05;;;3.58;;
15216;SDS011;7711;46.634;14.318;2022-08-01T00:06:16;3.97;;;3.67;;
15216;SDS011;7711;46.634;14.318;2022-08-01T00:08:44;5.25;;;3.67;;
15216;SDS011;7711;46.634;14.318;2022-08-01T00:11:11;4.65;;;3.40;;
15216;SDS011;7711;46.634;14.318;2022-08-01T00:13:39;4.13;;;3.40;;
15216;SDS011;7711;46.634;14.318;2022-08-01T00:16:08;3.78;;;3.40;;
15216;SDS011;7711;46.634;14.318;2022-08-01T00:18:36;3.78;;;3.45;;
15216;SDS011;7711;46.634;14.318;2022-08-01T00:21:04;4.70;;;3.70;;
15216;SDS011;7711;46.634;14.318;2022-08-01T00:23:31;4.30;;;3.90;;
15216;SDS011;7711;46.634;14.318;2022-08-01T00:26:01;5.00;;;3.92;;
15216;SDS011;7711;46.634;14.318;2022-08-01T00:28:28;3.75;;;3.35;;
15216;SDS011;7711;46.634;14.318;2022-08-01T00:30:56;6.85;;;3.80;;
15216;SDS011;7711;46.634;14.318;2022-08-01T00:33:23;3.80;;;3.50;;
15216;SDS011;7711;46.634;14.318;2022-08-01T00:35:54;4.65;;;3.60;;
15216;SDS011;7711;46.634;14.318;2022-08-01T00:38:22;3.95;;;3.55;;
15216;SDS011;7711;46.634;14.318;2022-08-01T00:40:49;4.68;;;3.50;;
15216;SDS011;7711;46.634;14.318;2022-08-01T00:43:17;3.53;;;3.15;;
15216;SDS011;7711;46.634;14.318;2022-08-01T00:45:44;5.65;;;3.90;;
15216;SDS011;7711;46.634;14.318;2022-08-01T00:48:16;5.53;;;3.92;;
15216;SDS011;7711;46.634;14.318;2022-08-01T00:50:45;3.90;;;3.60;;
15216;SDS011;7711;46.634;14.318;2022-08-01T00:53:14;4.03;;;3.72;;
15216;SDS011;7711;46.634;14.318;2022-08-01T00:55:41;4.13;;;3.83;;
15216;SDS011;7711;46.634;14.318;2022-08-01T00:58:09;6.07;;;3.85;;
15216;SDS011;7711;46.634;14.318;2022-08-01T01:00:36;5.53;;;4.18;;
15216;SDS011;7711;46.634;14.318;2022-08-01T01:03:04;6.30;;;3.90;;
15216;SDS011;7711;46.634;14.318;2022-08-01T01:05:32;4.03;;;3.72;;
15216;SDS011;7711;46.634;14.318;2022-08-01T01:08:07;4.15;;;3.83;;
15216;SDS011;7711;46.634;14.318;2022-08-01T01:10:42;6.18;;;3.88;;
15216;SDS011;7711;46.634;14.318;2022-08-01T01:13:16;3.90;;;3.58;;
15216;SDS011;7711;46.634;14.318;2022-08-01T01:15:49;3.97;;;3.58;;
15216;SDS011;7711;46.634;14.318;2022-08-01T01:18:26;4.65;;;3.78;;
15216;SDS011;7711;46.634;14.318;2022-08-01T01:20:57;4.05;;;3.70;;
15216;SDS011;7711;46.634;14.318;2022-08-01T01:23:39;4.65;;;4.25;;
15216;SDS011;7711;46.634;14.318;2022-08-01T01:26:17;4.38;;;3.78;;
15216;SDS011;7711;46.634;14.318;2022-08-01T01:29:04;4.85;;;3.90;;
15216;SDS011;7711;46.634;14.318;2022-08-01T01:31:39;4.80;;;3.75;;
15216;SDS011;7711;46.634;14.318;2022-08-01T01:34:09;4.28;;;3.90;;
15216;SDS011;7711;46.634;14.318;2022-08-01T01:36:39;4.43;;;4.03;;
15216;SDS011;7711;46.634;14.318;2022-08-01T01:39:08;6.47;;;4.00;;
15216;SDS011;7711;46.634;14.318;2022-08-01T01:41:37;4.20;;;3.80;;
15216;SDS011;7711;46.634;14.318;2022-08-01T01:44:08;4.28;;;3.88;;
15216;SDS011;7711;46.634;14.318;2022-08-01T01:46:36;7.57;;;3.78;;
15216;SDS011;7711;46.634;14.318;2022-08-01T01:49:04;4.90;;;4.00;;
15216;SDS011;7711;46.634;14.318;2022-08-01T01:51:35;4.85;;;4.35;;
15216;SDS011;7711;46.634;14.318;2022-08-01T01:54:09;5.70;;;3.85;;
15216;SDS011;7711;46.634;14.318;2022-08-01T01:56:37;5.00;;;4.00;;
15216;SDS011;7711;46.634;14.318;2022-08-01T01:59:16;4.88;;;3.92;;
15216;SDS011;7711;46.634;14.318;2022-08-01T02:01:47;5.38;;;4.30;;
15216;SDS011;7711;46.634;14.318;2022-08-01T02:04:15;4.80;;;4.28;;
15216;SDS011;7711;46.634;14.318;2022-08-01T02:06:43;4.60;;;4.20;;
15216;SDS011;7711;46.634;14.318;2022-08-01T02:09:14;5.22;;;4.20;;
15216;SDS011;7711;46.634;14.318;2022-08-01T02:11:47;4.15;;;3.70;;
15216;SDS011;7711;46.634;14.318;2022-08-01T02:14:18;4.38;;;3.97;;
15216;SDS011;7711;46.634;14.318;2022-08-01T02:16:47;5.53;;;4.50;;
15216;SDS011;7711;46.634;14.318;2022-08-01T02:19:15;4.97;;;4.10;;
15216;SDS011;7711;46.634;14.318;2022-08-01T02:21:46;6.00;;;4.45;;
15216;SDS011;7711;46.634;14.318;2022-08-01T02:24:19;5.07;;;4.60;;
15216;SDS011;7711;46.634;14.318;2022-08-01T02:26:52;5.53;;;4.55;;
15216;SDS011;7711;46.634;14.318;2022-08-01T02:29:26;5.75;;;4.60;;
15216;SDS011;7711;46.634;14.318;2022-08-01T02:31:59;4.32;;;3.92;;
15216;SDS011;7711;46.634;14.318;2022-08-01T02:34:27;4.00;;;3.70;;
15216;SDS011;7711;46.634;14.318;2022-08-01T02:36:58;6.20;;;4.32;;
15216;SDS011;7711;46.634;14.318;2022-08-01T02:39:27;4.53;;;4.13;;
15216;SDS011;7711;46.634;14.318;2022-08-01T02:41:57;6.80;;;4.10;;
15216;SDS011;7711;46.634;14.318;2022-08-01T02:44:28;4.60;;;4.20;;
15216;SDS011;7711;46.634;14.318;2022-08-01T02:46:59;4.88;;;4.43;;
15216;SDS011;7711;46.634;14.318;2022-08-01T02:49:29;4.60;;;4.20;;
15216;SDS011;7711;46.634;14.318;2022-08-01T02:51:59;5.85;;;4.10;;
15216;SDS011;7711;46.634;14.318;2022-08-01T02:54:30;4.70;;;4.30;;
15216;SDS011;7711;46.634;14.318;2022-08-01T02:57:03;6.78;;;4.35;;
15216;SDS011;7711;46.634;14.318;2022-08-01T02:59:33;5.35;;;4.82;;
15216;SDS011;7711;46.634;14.318;2022-08-01T03:02:03;4.72;;;4.32;;
15216;SDS011;7711;46.634;14.318;2022-08-01T03:04:32;5.63;;;4.25;;
15216;SDS011;7711;46.634;14.318;2022-08-01T03:07:04;4.40;;;4.00;;
15216;SDS011;7711;46.634;14.318;2022-08-01T03:09:37;6.47;;;4.57;;
15216;SDS011;7711;46.634;14.318;2022-08-01T03:12:07;4.55;;;4.10;;
15216;SDS011;7711;46.634;14.318;2022-08-01T03:14:39;5.13;;;4.07;;
15216;SDS011;7711;46.634;14.318;2022-08-01T03:17:08;4.65;;;4.25;;
15216;SDS011;7711;46.634;14.318;2022-08-01T03:19:38;8.63;;;4.30;;
15216;SDS011;7711;46.634;14.318;2022-08-01T03:22:06;4.60;;;4.20;;
15216;SDS011;7711;46.634;14.318;2022-08-01T03:24:41;5.07;;;4.53;;
15216;SDS011;7711;46.634;14.318;2022-08-01T03:27:10;4.95;;;4.40;;
15216;SDS011;7711;46.634;14.318;2022-08-01T03:29:41;4.82;;;4.43;;
15216;SDS011;7711;46.634;14.318;2022-08-01T03:32:11;6.43;;;4.47;;
15216;SDS011;7711;46.634;14.318;2022-08-01T03:34:39;5.55;;;4.38;;
15216;SDS011;7711;46.634;14.318;2022-08-01T03:37:11;4.85;;;4.38;;
15216;SDS011;7711;46.634;14.318;2022-08-01T03:39:50;5.40;;;4.90;;
15216;SDS011;7711;46.634;14.318;2022-08-01T03:42:23;4.78;;;4.47;;
15216;SDS011;7711;46.634;14.318;2022-08-01T03:44:57;4.88;;;4.47;;
15216;SDS011;7711;46.634;14.318;2022-08-01T03:47:29;4.63;;;4.20;;
15216;SDS011;7711;46.634;14.318;2022-08-01T03:49:58;5.20;;;4.75;;
15216;SDS011;7711;46.634;14.318;2022-08-01T03:52:27;4.90;;;4.50;;
15216;SDS011;7711;46.634;14.318;2022-08-01T03:54:58;5.55;;;4.70;;
15216;SDS011;7711;46.634;14.318;2022-08-01T03:57:30;5.47;;;4.60;;
15216;SDS011;7711;46.634;14.318;2022-08-01T04:00:00;4.78;;;4.38;;
15216;SDS011;7711;46.634;14.318;2022-08-01T04:02:30;6.78;;;4.55;;
15216;SDS011;7711;46.634;14.318;2022-08-01T04:05:00;5.13;;;4.60;;
15216;SDS011;7711;46.634;14.318;2022-08-01T04:07:28;6.40;;;4.80;;
15216;SDS011;7711;46.634;14.318;2022-08-01T04:09:56;8.90;;;5.10;;
15216;SDS011;7711;46.634;14.318;2022-08-01T04:12:24;5.47;;;4.63;;
15216;SDS011;7711;46.634;14.318;2022-08-01T04:14:54;8.90;;;4.85;;
15216;SDS011;7711;46.634;14.318;2022-08-01T04:17:22;5.38;;;4.50;;
15216;SDS011;7711;46.634;14.318;2022-08-01T04:19:50;5.38;;;4.30;;
15216;SDS011;7711;46.634;14.318;2022-08-01T04:22:17;4.88;;;4.47;;
15216;SDS011;7711;46.634;14.318;2022-08-01T04:24:46;5.88;;;4.88;;
15216;SDS011;7711;46.634;14.318;2022-08-01T04:27:17;6.35;;;4.75;;
15216;SDS011;7711;46.634;14.318;2022-08-01T04:29:48;6.15;;;4.45;;
15216;SDS011;7711;46.634;14.318;2022-08-01T04:32:18;5.90;;;4.30;;
15216;SDS011;7711;46.634;14.318;2022-08-01T04:34:48;4.60;;;4.20;;
15216;SDS011;7711;46.634;14.318;2022-08-01T04:37:16;4.70;;;4.22;;
15216;SDS011;7711;46.634;14.318;2022-08-01T04:39:45;5.20;;;3.92;;
15216;SDS011;7711;46.634;14.318;2022-08-01T04:42:14;6.50;;;4.57;;
15216;SDS011;7711;46.634;14.318;2022-08-01T04:44:42;4.28;;;3.90;;
15216;SDS011;7711;46.634;14.318;2022-08-01T04:47:09;4.55;;;4.13;;
15216;SDS011;7711;46.634;14.318;2022-08-01T04:49:39;8.15;;;4.47;;
15216;SDS011;7711;46.634;14.318;2022-08-01T04:52:12;4.80;;;4.30;;
15216;SDS011;7711;46.634;14.318;2022-08-01T04:54:41;5.93;;;4.00;;
15216;SDS011;7711;46.634;14.318;2022-08-01T04:57:08;6.28;;;4.25;;
15216;SDS011;7711;46.634;14.318;2022-08-01T04:59:36;5.10;;;4.00;;
15216;SDS011;7711;46.634;14.318;2022-08-01T05:02:09;5.32;;;4.75;;
15216;SDS011;7711;46.634;14.318;2022-08-01T05:04:39;5.10;;;4.53;;
15216;SDS011;7711;46.634;14.318;2022-08-01T05:07:06;4.60;;;4.20;;
15216;SDS011;7711;46.634;14.318;2022-08-01T05:09:38;4.53;;;4.13;;
15216;SDS011;7711;46.634;14.318;2022-08-01T05:12:07;5.25;;;4.28;;
15216;SDS011;7711;46.634;14.318;2022-08-01T05:14:36;5.85;;;4.50;;
15216;SDS011;7711;46.634;14.318;2022-08-01T05:17:03;4.70;;;4.18;;
15216;SDS011;7711;46.634;14.318;2022-08-01T05:19:34;4.30;;;3.90;;
15216;SDS011;7711;46.634;14.318;2022-08-01T05:22:04;4.95;;;3.92;;
15216;SDS011;7711;46.634;14.318;2022-08-01T05:24:32;4.72;;;4.13;;
15216;SDS011;7711;46.634;14.318;2022-08-01T05:27:01;4.90;;;4.40;;
15216;SDS011;7711;46.634;14.318;2022-08-01T05:29:31;5.35;;;4.53;;
15216;SDS011;7711;46.634;14.318;2022-08-01T05:31:59;9.93;;;4.20;;
15216;SDS011;7711;46.634;14.318;2022-08-01T05:34:26;7.97;;;4.25;;
15216;SDS011;7711;46.634;14.318;2022-08-01T05:36:53;5.80;;;4.40;;
15216;SDS011;7711;46.634;14.318;2022-08-01T05:39:20;7.18;;;4.45;;
15216;SDS011;7711;46.634;14.318;2022-08-01T05:41:47;7.18;;;4.75;;
15216;SDS011;7711;46.634;14.318;2022-08-01T05:44:16;5.20;;;4.03;;
15216;SDS011;7711;46.634;14.318;2022-08-01T05:46:43;4.57;;;3.95;;
15216;SDS011;7711;46.634;14.318;2022-08-01T05:49:16;4.45;;;4.05;;
15216;SDS011;7711;46.634;14.318;2022-08-01T05:51:43;4.97;;;4.03;;
15216;SDS011;7711;46.634;14.318;2022-08-01T05:54:10;5.90;;;4.40;;
15216;SDS011;7711;46.634;14.318;2022-08-01T05:56:38;5.82;;;4.38;;
15216;SDS011;7711;46.634;14.318;2022-08-01T05:59:07;4.40;;;4.00;;
15216;SDS011;7711;46.634;14.318;2022-08-01T06:01:36;8.85;;;4.20;;
15216;SDS011;7711;46.634;14.318;2022-08-01T06:04:04;4.57;;;4.07;;
15216;SDS011;7711;46.634;14.318;2022-08-01T06:06:34;4.15;;;3.75;;
15216;SDS011;7711;46.634;14.318;2022-08-01T06:09:03;4.85;;;4.10;;
15216;SDS011;7711;46.634;14.318;2022-08-01T06:11:30;11.07;;;4.00;;
15216;SDS011;7711;46.634;14.318;2022-08-01T06:14:00;4.38;;;3.80;;
15216;SDS011;7711;46.634;14.318;2022-08-01T06:16:27;4.03;;;3.67;;
15216;SDS011;7711;46.634;14.318;2022-08-01T06:18:56;4.63;;;3.50;;
15216;SDS011;7711;46.634;14.318;2022-08-01T06:21:24;4.03;;;3.63;;
15216;SDS011;7711;46.634;14.318;2022-08-01T06:23:52;4.82;;;3.90;;
15216;SDS011;7711;46.634;14.318;2022-08-01T06:26:21;4.85;;;3.78;;
15216;SDS011;7711;46.634;14.318;2022-08-01T06:28:49;5.00;;;3.80;;
15216;SDS011;7711;46.634;14.318;2022-08-01T06:31:19;4.95;;;4.07;;
15216;SDS011;7711;46.634;14.318;2022-08-01T06:33:46;4.72;;;3.85;;
15216;SDS011;7711;46.634;14.318;2022-08-01T06:36:14;4.45;;;3.75;;
15216;SDS011;7711;46.634;14.318;2022-08-01T06:38:41;4.75;;;4.05;;
15216;SDS011;7711;46.634;14.318;2022-08-01T06:41:09;4.07;;;3.78;;
15216;SDS011;7711;46.634;14.318;2022-08-01T06:43:41;4.55;;;4.13;;
15216;SDS011;7711;46.634;14.318;2022-08-01T06:46:08;4.82;;;3.95;;
15216;SDS011;7711;46.634;14.318;2022-08-01T06:48:36;4.55;;;3.80;;
15216;SDS011;7711;46.634;14.318;2022-08-01T06:51:04;4.00;;;3.70;;
15216;SDS011;7711;46.634;14.318;2022-08-01T06:53:35;4.88;;;3.83;;
15216;SDS011;7711;46.634;14.318;2022-08-01T06:56:03;4.45;;;3.78;;
15216;SDS011;7711;46.634;14.318;2022-08-01T06:58:33;4.80;;;4.30;;
15216;SDS011;7711;46.634;14.318;2022-08-01T07:01:01;4.55;;;4.10;;
15216;SDS011;7711;46.634;14.318;2022-08-01T07:03:31;6.38;;;4.00;;
15216;SDS011;7711;46.634;14.318;2022-08-01T07:05:58;4.80;;;3.97;;
15216;SDS011;7711;46.634;14.318;2022-08-01T07:08:25;6.20;;;4.35;;
15216;SDS011;7711;46.634;14.318;2022-08-01T07:10:53;5.25;;;4.15;;
15216;SDS011;7711;46.634;14.318;2022-08-01T07:13:24;4.45;;;4.00;;
15216;SDS011;7711;46.634;14.318;2022-08-01T07:15:51;5.28;;;3.97;;
15216;SDS011;7711;46.634;14.318;2022-08-01T07:18:23;4.28;;;3.88;;
15216;SDS011;7711;46.634;14.318;2022-08-01T07:20:50;5.25;;;4.10;;
15216;SDS011;7711;46.634;14.318;2022-08-01T07:23:18;5.20;;;4.50;;
15216;SDS011;7711;46.634;14.318;2022-08-01T07:25:48;5.35;;;3.85;;
15216;SDS011;7711;46.634;14.318;2022-08-01T07:28:19;4.90;;;3.90;;
15216;SDS011;7711;46.634;14.318;2022-08-01T07:30:46;6.63;;;4.18;;
15216;SDS011;7711;46.634;14.318;2022-08-01T07:33:13;4.30;;;3.90;;
15216;SDS011;7711;46.634;14.318;2022-08-01T07:35:40;4.82;;;4.38;;
15216;SDS011;7711;46.634;14.318;2022-08-01T07:38:08;6.18;;;4.43;;
15216;SDS011;7711;46.634;14.318;2022-08-01T07:40:35;4.88;;;4.38;;
15216;SDS011;7711;46.634;14.318;2022-08-01T07:43:02;6.60;;;4.53;;
15216;SDS011;7711;46.634;14.318;2022-08-01T07:45:36;5.10;;;4.35;;
15216;SDS011;7711;46.634;14.318;2022-08-01T07:48:04;4.57;;;4.20;;
15216;SDS011;7711;46.634;14.318;2022-08-01T07:50:32;4.72;;;4.10;;
15216;SDS011;7711;46.634;14.318;2022-08-01T07:52:59;5.25;;;4.20;;
15216;SDS011;7711;46.634;14.318;2022-08-01T07:55:27;6.45;;;4.13;;
15216;SDS011;7711;46.634;14.318;2022-08-01T07:57:54;5.45;;;4.10;;
15216;SDS011;7711;46.634;14.318;2022-08-01T08:00:22;7.43;;;4.53;;
15216;SDS011;7711;46.634;14.318;2022-08-01T08:02:50;8.55;;;4.63;;
15216;SDS011;7711;46.634;14.318;2022-08-01T08:05:18;4.40;;;4.00;;
15216;SDS011;7711;46.634;14.318;2022-08-01T08:07:46;5.85;;;3.97;;
15216;SDS011;7711;46.634;14.318;2022-08-01T08:10:13;4.72;;;4.22;;
15216;SDS011;7711;46.634;14.318;2022-08-01T08:12:40;5.07;;;4.03;;
15216;SDS011;7711;46.634;14.318;2022-08-01T08:15:07;7.55;;;4.60;;
15216;SDS011;7711;46.634;14.318;2022-08-01T08:17:35;7.38;;;4.38;;
15216;SDS011;7711;46.634;14.318;2022-08-01T08:20:05;5.97;;;4.45;;
15216;SDS011;7711;46.634;14.318;2022-08-01T08:22:33;8.02;;;4.18;;
15216;SDS011;7711;46.634;14.318;2022-08-01T08:25:02;6.32;;;4.28;;
15216;SDS011;7711;46.634;14.318;2022-08-01T08:27:31;5.05;;;4.07;;
15216;SDS011;7711;46.634;14.318;2022-08-01T08:30:02;4.50;;;4.10;;
15216;SDS011;7711;46.634;14.318;2022-08-01T08:32:31;5.82;;;4.03;;
15216;SDS011;7711;46.634;14.318;2022-08-01T08:34:58;4.05;;;3.70;;
15216;SDS011;7711;46.634;14.318;2022-08-01T08:37:26;5.43;;;3.83;;
15216;SDS011;7711;46.634;14.318;2022-08-01T08:39:53;3.60;;;3.35;;
15216;SDS011;7711;46.634;14.318;2022-08-01T08:42:20;3.63;;;3.33;;
15216;SDS011;7711;46.634;14.318;2022-08-01T08:44:48;5.50;;;3.65;;
15216;SDS011;7711;46.634;14.318;2022-08-01T08:47:17;3.47;;;3.17;;
15216;SDS011;7711;46.634;14.318;2022-08-01T08:49:47;3.63;;;3.33;;
15216;SDS011;7711;46.634;14.318;2022-08-01T08:52:17;12.40;;;3.60;;
15216;SDS011;7711;46.634;14.318;2022-08-01T08:54:49;4.13;;;3.70;;
15216;SDS011;7711;46.634;14.318;2022-08-01T08:57:18;4.93;;;3.50;;
15216;SDS011;7711;46.634;14.318;2022-08-01T08:59:46;3.97;;;3.65;;
15216;SDS011;7711;46.634;14.318;2022-08-01T09:02:19;3.65;;;3.35;;
15216;SDS011;7711;46.634;14.318;2022-08-01T09:04:48;3.97;;;3.47;;
15216;SDS011;7711;46.634;14.318;2022-08-01T09:07:16;3.60;;;3.30;;
15216;SDS011;7711;46.634;14.318;2022-08-01T09:09:45;4.80;;;3.33;;
15216;SDS011;7711;46.634;14.318;2022-08-01T09:12:15;3.70;;;3.30;;
15216;SDS011;7711;46.634;14.318;2022-08-01T09:14:44;5.90;;;3.22;;
15216;SDS011;7711;46.634;14.318;2022-08-01T09:17:12;4.13;;;3.65;;
15216;SDS011;7711;46.634;14.318;2022-08-01T09:19:41;5.28;;;3.58;;
15216;SDS011;7711;46.634;14.318;2022-08-01T09:22:10;3.85;;;3.40;;
15216;SDS011;7711;46.634;14.318;2022-08-01T09:24:52;3.30;;;3.10;;
15216;SDS011;7711;46.634;14.318;2022-08-01T09:27:27;3.90;;;3.47;;
15216;SDS011;7711;46.634;14.318;2022-08-01T09:30:05;3.40;;;3.10;;
15216;SDS011;7711;46.634;14.318;2022-08-01T09:32:34;3.85;;;3.33;;
15216;SDS011;7711;46.634;14.318;2022-08-01T09:37:52;4.95;;;3.30;;
15216;SDS011;7711;46.634;14.318;2022-08-01T09:40:51;3.60;;;3.10;;
15216;SDS011;7711;46.634;14.318;2022-08-01T09:43:20;4.47;;;3.25;;
15216;SDS011;7711;46.634;14.318;2022-08-01T09:45:49;4.82;;;3.55;;
15216;SDS011;7711;46.634;14.318;2022-08-01T09:48:21;3.92;;;3.35;;
15216;SDS011;7711;46.634;14.318;2022-08-01T09:50:49;4.30;;;3.42;;
15216;SDS011;7711;46.634;14.318;2022-08-01T09:53:18;3.72;;;3.38;;
15216;SDS011;7711;46.634;14.318;2022-08-01T09:55:48;4.47;;;3.22;;
15216;SDS011;7711;46.634;14.318;2022-08-01T09:58:21;3.60;;;3.30;;
15216;SDS011;7711;46.634;14.318;2022-08-01T10:00:57;3.38;;;3.10;;
15216;SDS011;7711;46.634;14.318;2022-08-01T10:03:32;4.22;;;3.15;;
15216;SDS011;7711;46.634;14.318;2022-08-01T10:06:15;3.80;;;3.50;;
15216;SDS011;7711;46.634;14.318;2022-08-01T10:08:45;3.80;;;2.80;;
15216;SDS011;7711;46.634;14.318;2022-08-01T10:11:15;3.67;;;3.30;;
15216;SDS011;7711;46.634;14.318;2022-08-01T10:13:43;4.90;;;3.00;;
15216;SDS011;7711;46.634;14.318;2022-08-01T10:16:12;3.85;;;3.10;;
15216;SDS011;7711;46.634;14.318;2022-08-01T10:18:40;3.50;;;3.20;;
15216;SDS011;7711;46.634;14.318;2022-08-01T10:21:10;3.53;;;3.20;;
15216;SDS011;7711;46.634;14.318;2022-08-01T10:23:38;3.67;;;3.17;;
15216;SDS011;7711;46.634;14.318;2022-08-01T10:26:07;5.28;;;3.25;;
15216;SDS011;7711;46.634;14.318;2022-08-01T10:28:38;3.60;;;3.30;;
15216;SDS011;7711;46.634;14.318;2022-08-01T10:31:06;3.67;;;3.35;;
15216;SDS011;7711;46.634;14.318;2022-08-01T10:33:37;6.07;;;3.67;;
15216;SDS011;7711;46.634;14.318;2022-08-01T10:36:07;4.68;;;3.30;;
15216;SDS011;7711;46.634;14.318;2022-08-01T10:38:37;3.22;;;2.92;;
15216;SDS011;7711;46.634;14.318;2022-08-01T10:41:05;2.83;;;2.60;;
15216;SDS011;7711;46.634;14.318;2022-08-01T10:43:34;2.72;;;2.50;;
15216;SDS011;7711;46.634;14.318;2022-08-01T10:46:04;4.63;;;2.50;;
15216;SDS011;7711;46.634;14.318;2022-08-01T10:48:33;3.10;;;2.80;;
15216;SDS011;7711;46.634;14.318;2022-08-01T10:51:06;4.13;;;3.03;;
15216;SDS011;7711;46.634;14.318;2022-08-01T10:53:34;3.05;;;2.75;;
15216;SDS011;7711;46.634;14.318;2022-08-01T10:56:03;6.07;;;3.00;;
15216;SDS011;7711;46.634;14.318;2022-08-01T10:58:31;3.65;;;3.13;;
15216;SDS011;7711;46.634;14.318;2022-08-01T11:01:14;3.42;;;2.92;;
15216;SDS011;7711;46.634;14.318;2022-08-01T11:03:44;3.65;;;3.10;;
15216;SDS011;7711;46.634;14.318;2022-08-01T11:06:24;5.35;;;2.83;;
15216;SDS011;7711;46.634;14.318;2022-08-01T11:08:53;3.40;;;3.10;;
15216;SDS011;7711;46.634;14.318;2022-08-01T11:11:24;4.00;;;2.83;;
15216;SDS011;7711;46.634;14.318;2022-08-01T11:14:00;3.63;;;2.88;;
15216;SDS011;7711;46.634;14.318;2022-08-01T11:16:31;3.03;;;2.78;;
15216;SDS011;7711;46.634;14.318;2022-08-01T11:19:00;3.30;;;2.95;;
15216;SDS011;7711;46.634;14.318;2022-08-01T11:27:25;4.00;;;2.88;;
15216;SDS011;7711;46.634;14.318;2022-08-01T11:32:53;2.80;;;2.60;;
15216;SDS011;7711;46.634;14.318;2022-08-01T11:35:21;3.78;;;2.78;;
15216;SDS011;7711;46.634;14.318;2022-08-01T11:37:51;3.72;;;2.40;;
15216;SDS011;7711;46.634;14.318;2022-08-01T11:40:22;3.40;;;2.40;;
15216;SDS011;7711;46.634;14.318;2022-08-01T11:45:47;2.80;;;2.60;;
15216;SDS011;7711;46.634;14.318;2022-08-01T11:48:21;4.35;;;3.10;;
15216;SDS011;7711;46.634;14.318;2022-08-01T11:50:51;3.10;;;2.80;;
15216;SDS011;7711;46.634;14.318;2022-08-01T11:53:19;4.88;;;2.92;;
15216;SDS011;7711;46.634;14.318;2022-08-01T11:55:47;3.30;;;3.00;;
15216;SDS011;7711;46.634;14.318;2022-08-01T11:58:16;8.50;;;3.00;;
15216;SDS011;7711;46.634;14.318;2022-08-01T12:00:54;3.17;;;2.80;;
15216;SDS011;7711;46.634;14.318;2022-08-01T12:03:27;3.10;;;2.78;;
15216;SDS011;7711;46.634;14.318;2022-08-01T12:05:55;3.15;;;2.80;;
15216;SDS011;7711;46.634;14.318;2022-08-01T12:08:28;3.83;;;3.00;;
15216;SDS011;7711;46.634;14.318;2022-08-01T12:10:58;3.22;;;2.83;;
15216;SDS011;7711;46.634;14.318;2022-08-01T12:13:26;3.10;;;2.80;;
15216;SDS011;7711;46.634;14.318;2022-08-01T12:15:54;3.25;;;2.95;;
15216;SDS011;7711;46.634;14.318;2022-08-01T12:18:38;3.20;;;2.90;;
15216;SDS011;7711;46.634;14.318;2022-08-01T12:21:08;2.95;;;2.72;;
15216;SDS011;7711;46.634;14.318;2022-08-01T12:23:36;3.55;;;2.90;;
15216;SDS011;7711;46.634;14.318;2022-08-01T12:26:05;3.35;;;2.92;;
15216;SDS011;7711;46.634;14.318;2022-08-01T12:28:38;2.97;;;2.70;;
15216;SDS011;7711;46.634;14.318;2022-08-01T12:31:05;4.95;;;2.80;;
15216;SDS011;7711;46.634;14.318;2022-08-01T12:33:33;3.75;;;2.80;;
15216;SDS011;7711;46.634;14.318;2022-08-01T12:36:06;2.95;;;2.75;;
15216;SDS011;7711;46.634;14.318;2022-08-01T12:38:36;2.95;;;2.72;;
15216;SDS011;7711;46.634;14.318;2022-08-01T12:41:03;5.03;;;2.90;;
15216;SDS011;7711;46.634;14.318;2022-08-01T12:43:33;5.15;;;2.80;;
15216;SDS011;7711;46.634;14.318;2022-08-01T12:46:02;4.25;;;2.80;;
15216;SDS011;7711;46.634;14.318;2022-08-01T12:48:29;3.33;;;2.78;;
15216;SDS011;7711;46.634;14.318;2022-08-01T12:50:58;2.70;;;2.50;;
15216;SDS011;7711;46.634;14.318;2022-08-01T12:53:28;2.75;;;2.55;;
15216;SDS011;7711;46.634;14.318;2022-08-01T12:56:01;3.30;;;2.83;;
15216;SDS011;7711;46.634;14.318;2022-08-01T12:58:32;2.90;;;2.70;;
15216;SDS011;7711;46.634;14.318;2022-08-01T13:01:06;3.20;;;2.67;;
15216;SDS011;7711;46.634;14.318;2022-08-01T13:03:35;4.10;;;2.50;;
15216;SDS011;7711;46.634;14.318;2022-08-01T13:06:09;4.28;;;2.80;;
15216;SDS011;7711;46.634;14.318;2022-08-01T13:08:38;2.95;;;2.42;;
15216;SDS011;7711;46.634;14.318;2022-08-01T13:11:06;3.30;;;2.80;;
15216;SDS011;7711;46.634;14.318;2022-08-01T13:13:38;4.18;;;2.95;;
15216;SDS011;7711;46.634;14.318;2022-08-01T13:16:07;4.70;;;2.75;;
15216;SDS011;7711;46.634;14.318;2022-08-01T13:18:35;4.10;;;2.78;;
15216;SDS011;7711;46.634;14.318;2022-08-01T13:21:15;3.65;;;2.80;;
15216;SDS011;7711;46.634;14.318;2022-08-01T13:26:41;2.85;;;2.65;;
15216;SDS011;7711;46.634;14.318;2022-08-01T13:29:10;3.42;;;2.50;;
15216;SDS011;7711;46.634;14.318;2022-08-01T13:31:40;2.92;;;2.67;;
15216;SDS011;7711;46.634;14.318;2022-08-01T13:34:10;5.45;;;2.40;;
15216;SDS011;7711;46.634;14.318;2022-08-01T13:36:42;5.00;;;2.53;;
15216;SDS011;7711;46.634;14.318;2022-08-01T13:39:11;3.92;;;2.80;;
15216;SDS011;7711;46.634;14.318;2022-08-01T13:41:55;2.90;;;2.63;;
15216;SDS011;7711;46.634;14.318;2022-08-01T13:44:23;3.00;;;2.67;;
15216;SDS011;7711;46.634;14.318;2022-08-01T13:46:52;2.60;;;2.40;;
15216;SDS011;7711;46.634;14.318;2022-08-01T13:49:21;2.60;;;2.40;;
15216;SDS011;7711;46.634;14.318;2022-08-01T13:51:49;2.80;;;2.55;;
15216;SDS011;7711;46.634;14.318;2022-08-01T13:54:18;3.92;;;2.60;;
15216;SDS011;7711;46.634;14.318;2022-08-01T13:56:45;2.78;;;2.58;;
15216;SDS011;7711;46.634;14.318;2022-08-01T13:59:14;3.08;;;2.78;;
15216;SDS011;7711;46.634;14.318;2022-08-01T14:01:43;2.78;;;2.58;;
15216;SDS011;7711;46.634;14.318;2022-08-01T14:04:10;3.85;;;2.90;;
15216;SDS011;7711;46.634;14.318;2022-08-01T14:06:39;2.80;;;2.60;;
15216;SDS011;7711;46.634;14.318;2022-08-01T14:09:10;5.32;;;2.50;;
15216;SDS011;7711;46.634;14.318;2022-08-01T14:11:39;3.20;;;2.90;;
15216;SDS011;7711;46.634;14.318;2022-08-01T14:14:06;3.30;;;2.50;;
15216;SDS011;7711;46.634;14.318;2022-08-01T14:16:35;2.97;;;2.67;;
15216;SDS011;7711;46.634;14.318;2022-08-01T14:19:04;3.38;;;2.42;;
15216;SDS011;7711;46.634;14.318;2022-08-01T14:21:31;2.80;;;2.60;;
15216;SDS011;7711;46.634;14.318;2022-08-01T14:24:00;7.10;;;2.88;;
15216;SDS011;7711;46.634;14.318;2022-08-01T14:26:27;2.85;;;2.65;;
15216;SDS011;7711;46.634;14.318;2022-08-01T14:28:56;2.80;;;2.60;;
15216;SDS011;7711;46.634;14.318;2022-08-01T14:31:25;2.88;;;2.60;;
15216;SDS011;7711;46.634;14.318;2022-08-01T14:33:52;3.10;;;2.47;;
15216;SDS011;7711;46.634;14.318;2022-08-01T14:36:19;3.03;;;2.70;;
15216;SDS011;7711;46.634;14.318;2022-08-01T14:38:46;3.08;;;2.80;;
15216;SDS011;7711;46.634;14.318;2022-08-01T14:41:15;3.05;;;2.75;;
15216;SDS011;7711;46.634;14.318;2022-08-01T14:43:42;2.83;;;2.63;;
15216;SDS011;7711;46.634;14.318;2022-08-01T14:46:11;2.70;;;2.40;;
15216;SDS011;7711;46.634;14.318;2022-08-01T14:48:39;3.10;;;2.80;;
15216;SDS011;7711;46.634;14.318;2022-08-01T14:51:06;2.97;;;2.65;;
15216;SDS011;7711;46.634;14.318;2022-08-01T14:53:33;2.70;;;2.50;;
15216;SDS011;7711;46.634;14.318;2022-08-01T14:56:04;4.43;;;2.80;;
15216;SDS011;7711;46.634;14.318;2022-08-01T14:58:33;3.28;;;2.55;;
15216;SDS011;7711;46.634;14.318;2022-08-01T15:01:02;3.13;;;2.50;;
15216;SDS011;7711;46.634;14.318;2022-08-01T15:03:34;2.90;;;2.60;;
15216;SDS011;7711;46.634;14.318;2022-08-01T15:06:01;2.60;;;2.40;;
15216;SDS011;7711;46.634;14.318;2022-08-01T15:08:36;2.83;;;2.60;;
15216;SDS011;7711;46.634;14.318;2022-08-01T15:11:03;4.00;;;2.65;;
15216;SDS011;7711;46.634;14.318;2022-08-01T15:13:34;4.18;;;2.67;;
15216;SDS011;7711;46.634;14.318;2022-08-01T15:16:04;2.58;;;2.38;;
15216;SDS011;7711;46.634;14.318;2022-08-01T15:18:32;3.78;;;2.83;;
15216;SDS011;7711;46.634;14.318;2022-08-01T15:21:01;4.07;;;2.42;;